sensor_id;sensor_type;location;lat;lon;timestamp;P1;durP1;ratioP1;P2;durP2;ratioP2
49392;SDS011;35268;42.642;23.308;2023-06-26T00:01:14;23.70;;;16.02;;
49392;SDS011;35268;42.642;23.308;2023-06-26T00:03:39;24.52;;;14.77;;
49392;SDS011;35268;42.642;23.308;2023-06-26T00:06:05;22.23;;;15.18;;
49392;SDS011;35268;42.642;23.308;2023-06-26T00:08:30;23.45;;;15.65;;
49392;SDS011;35268;42.642;23.308;2023-06-26T00:10:56;21.20;;;14.50;;
49392;SDS011;35268;42.642;23.308;2023-06-26T00:13:22;24.58;;;15.32;;
49392;SDS011;35268;42.642;23.308;2023-06-26T00:15:48;23.52;;;15.00;;
49392;SDS011;35268;42.642;23.308;2023-06-26T00:18:14;20.33;;;14.68;;
49392;SDS011;35268;42.642;23.308;2023-06-26T00:20:39;26.75;;;14.23;;
49392;SDS011;35268;42.642;23.308;2023-06-26T00:23:05;27.48;;;15.18;;
49392;SDS011;35268;42.642;23.308;2023-06-26T00:25:32;23.38;;;14.10;;
49392;SDS011;35268;42.642;23.308;2023-06-26T00:27:58;26.25;;;14.52;;
49392;SDS011;35268;42.642;23.308;2023-06-26T00:30:24;19.85;;;13.88;;
49392;SDS011;35268;42.642;23.308;2023-06-26T00:32:49;22.45;;;14.02;;
49392;SDS011;35268;42.642;23.308;2023-06-26T00:35:16;19.85;;;13.63;;
49392;SDS011;35268;42.642;23.308;2023-06-26T00:37:41;24.45;;;12.60;;
49392;SDS011;35268;42.642;23.308;2023-06-26T00:40:07;19.05;;;12.88;;
49392;SDS011;35268;42.642;23.308;2023-06-26T00:42:34;27.67;;;13.07;;
49392;SDS011;35268;42.642;23.308;2023-06-26T00:44:59;25.10;;;13.10;;
49392;SDS011;35268;42.642;23.308;2023-06-26T00:47:24;18.08;;;12.80;;
49392;SDS011;35268;42.642;23.308;2023-06-26T00:49:51;17.50;;;11.27;;
49392;SDS011;35268;42.642;23.308;2023-06-26T00:52:17;18.02;;;11.95;;
49392;SDS011;35268;42.642;23.308;2023-06-26T00:54:42;22.88;;;11.88;;
49392;SDS011;35268;42.642;23.308;2023-06-26T00:57:08;19.70;;;12.25;;
49392;SDS011;35268;42.642;23.308;2023-06-26T00:59:34;19.17;;;11.75;;
49392;SDS011;35268;42.642;23.308;2023-06-26T01:02:00;18.20;;;10.65;;
49392;SDS011;35268;42.642;23.308;2023-06-26T01:04:26;19.30;;;12.27;;
49392;SDS011;35268;42.642;23.308;2023-06-26T01:06:52;18.63;;;11.77;;
49392;SDS011;35268;42.642;23.308;2023-06-26T01:09:20;24.88;;;11.82;;
49392;SDS011;35268;42.642;23.308;2023-06-26T01:11:46;16.67;;;11.38;;
49392;SDS011;35268;42.642;23.308;2023-06-26T01:14:12;18.83;;;12.07;;
49392;SDS011;35268;42.642;23.308;2023-06-26T01:16:38;15.98;;;10.65;;
49392;SDS011;35268;42.642;23.308;2023-06-26T01:19:13;18.08;;;11.70;;
49392;SDS011;35268;42.642;23.308;2023-06-26T01:21:49;16.02;;;11.55;;
49392;SDS011;35268;42.642;23.308;2023-06-26T01:24:37;17.45;;;11.57;;
49392;SDS011;35268;42.642;23.308;2023-06-26T01:27:04;23.55;;;12.00;;
49392;SDS011;35268;42.642;23.308;2023-06-26T01:29:31;18.30;;;11.73;;
49392;SDS011;35268;42.642;23.308;2023-06-26T01:31:58;24.27;;;11.35;;
49392;SDS011;35268;42.642;23.308;2023-06-26T01:34:25;18.65;;;11.23;;
49392;SDS011;35268;42.642;23.308;2023-06-26T01:36:51;20.60;;;10.80;;
49392;SDS011;35268;42.642;23.308;2023-06-26T01:39:18;19.08;;;11.73;;
49392;SDS011;35268;42.642;23.308;2023-06-26T01:41:44;17.52;;;11.88;;
49392;SDS011;35268;42.642;23.308;2023-06-26T01:44:17;15.73;;;11.90;;
49392;SDS011;35268;42.642;23.308;2023-06-26T01:46:58;15.80;;;11.15;;
49392;SDS011;35268;42.642;23.308;2023-06-26T01:54:34;17.10;;;12.05;;
49392;SDS011;35268;42.642;23.308;2023-06-26T01:57:04;27.40;;;12.80;;
49392;SDS011;35268;42.642;23.308;2023-06-26T01:59:32;27.90;;;13.50;;
49392;SDS011;35268;42.642;23.308;2023-06-26T02:02:00;15.80;;;11.73;;
49392;SDS011;35268;42.642;23.308;2023-06-26T02:04:26;18.80;;;11.50;;
49392;SDS011;35268;42.642;23.308;2023-06-26T02:06:51;18.33;;;11.18;;
49392;SDS011;35268;42.642;23.308;2023-06-26T02:09:17;17.98;;;11.38;;
49392;SDS011;35268;42.642;23.308;2023-06-26T02:11:43;15.52;;;10.48;;
49392;SDS011;35268;42.642;23.308;2023-06-26T02:14:08;17.95;;;11.75;;
49392;SDS011;35268;42.642;23.308;2023-06-26T02:16:35;16.67;;;11.25;;
49392;SDS011;35268;42.642;23.308;2023-06-26T02:19:00;16.42;;;11.32;;
49392;SDS011;35268;42.642;23.308;2023-06-26T02:21:26;15.77;;;11.45;;
49392;SDS011;35268;42.642;23.308;2023-06-26T02:23:51;14.45;;;11.32;;
49392;SDS011;35268;42.642;23.308;2023-06-26T02:26:17;15.05;;;11.77;;
49392;SDS011;35268;42.642;23.308;2023-06-26T02:28:42;18.02;;;12.63;;
49392;SDS011;35268;42.642;23.308;2023-06-26T02:31:07;32.13;;;12.63;;
49392;SDS011;35268;42.642;23.308;2023-06-26T02:33:33;17.60;;;13.27;;
49392;SDS011;35268;42.642;23.308;2023-06-26T02:35:59;19.98;;;12.38;;
49392;SDS011;35268;42.642;23.308;2023-06-26T02:38:24;18.70;;;12.15;;
49392;SDS011;35268;42.642;23.308;2023-06-26T02:40:49;21.45;;;13.15;;
49392;SDS011;35268;42.642;23.308;2023-06-26T02:43:15;22.33;;;13.10;;
49392;SDS011;35268;42.642;23.308;2023-06-26T02:45:41;19.80;;;12.65;;
49392;SDS011;35268;42.642;23.308;2023-06-26T02:48:06;20.75;;;13.23;;
49392;SDS011;35268;42.642;23.308;2023-06-26T02:50:32;18.85;;;13.00;;
49392;SDS011;35268;42.642;23.308;2023-06-26T02:52:57;21.00;;;13.05;;
49392;SDS011;35268;42.642;23.308;2023-06-26T02:55:23;19.00;;;13.02;;
49392;SDS011;35268;42.642;23.308;2023-06-26T02:57:49;19.52;;;13.23;;
49392;SDS011;35268;42.642;23.308;2023-06-26T03:00:14;22.40;;;13.07;;
49392;SDS011;35268;42.642;23.308;2023-06-26T03:02:40;20.27;;;14.98;;
49392;SDS011;35268;42.642;23.308;2023-06-26T03:05:05;20.30;;;13.80;;
49392;SDS011;35268;42.642;23.308;2023-06-26T03:07:31;18.70;;;12.95;;
49392;SDS011;35268;42.642;23.308;2023-06-26T03:09:57;20.58;;;14.68;;
49392;SDS011;35268;42.642;23.308;2023-06-26T03:12:22;22.02;;;14.57;;
49392;SDS011;35268;42.642;23.308;2023-06-26T03:14:49;19.10;;;13.85;;
49392;SDS011;35268;42.642;23.308;2023-06-26T03:17:15;21.58;;;13.93;;
49392;SDS011;35268;42.642;23.308;2023-06-26T03:19:40;28.88;;;14.98;;
49392;SDS011;35268;42.642;23.308;2023-06-26T03:22:05;21.45;;;15.45;;
49392;SDS011;35268;42.642;23.308;2023-06-26T03:24:31;18.63;;;14.35;;
49392;SDS011;35268;42.642;23.308;2023-06-26T03:26:56;26.73;;;14.07;;
49392;SDS011;35268;42.642;23.308;2023-06-26T03:29:22;20.95;;;14.52;;
49392;SDS011;35268;42.642;23.308;2023-06-26T03:31:47;21.48;;;15.60;;
49392;SDS011;35268;42.642;23.308;2023-06-26T03:34:13;20.70;;;14.43;;
49392;SDS011;35268;42.642;23.308;2023-06-26T03:36:38;19.88;;;15.30;;
49392;SDS011;35268;42.642;23.308;2023-06-26T03:39:04;20.35;;;14.13;;
49392;SDS011;35268;42.642;23.308;2023-06-26T03:41:30;21.85;;;14.90;;
49392;SDS011;35268;42.642;23.308;2023-06-26T03:43:55;24.45;;;14.45;;
49392;SDS011;35268;42.642;23.308;2023-06-26T03:46:21;21.55;;;15.27;;
49392;SDS011;35268;42.642;23.308;2023-06-26T03:48:47;24.25;;;14.57;;
49392;SDS011;35268;42.642;23.308;2023-06-26T03:51:13;20.00;;;15.30;;
49392;SDS011;35268;42.642;23.308;2023-06-26T03:53:39;21.15;;;14.27;;
49392;SDS011;35268;42.642;23.308;2023-06-26T03:56:05;20.27;;;14.50;;
49392;SDS011;35268;42.642;23.308;2023-06-26T03:58:30;22.85;;;15.45;;
49392;SDS011;35268;42.642;23.308;2023-06-26T04:00:56;20.95;;;15.15;;
49392;SDS011;35268;42.642;23.308;2023-06-26T04:03:22;18.90;;;14.20;;
49392;SDS011;35268;42.642;23.308;2023-06-26T04:05:48;18.63;;;13.98;;
49392;SDS011;35268;42.642;23.308;2023-06-26T04:08:14;19.55;;;13.85;;
49392;SDS011;35268;42.642;23.308;2023-06-26T04:10:39;20.42;;;14.50;;
49392;SDS011;35268;42.642;23.308;2023-06-26T04:13:05;22.23;;;14.48;;
49392;SDS011;35268;42.642;23.308;2023-06-26T04:15:30;20.23;;;14.75;;
49392;SDS011;35268;42.642;23.308;2023-06-26T04:17:56;20.35;;;14.02;;
49392;SDS011;35268;42.642;23.308;2023-06-26T04:20:21;19.25;;;15.45;;
49392;SDS011;35268;42.642;23.308;2023-06-26T04:22:47;18.90;;;13.85;;
49392;SDS011;35268;42.642;23.308;2023-06-26T04:25:12;19.73;;;13.65;;
49392;SDS011;35268;42.642;23.308;2023-06-26T04:27:38;19.42;;;13.70;;
49392;SDS011;35268;42.642;23.308;2023-06-26T04:30:03;17.10;;;12.57;;
49392;SDS011;35268;42.642;23.308;2023-06-26T04:32:30;19.50;;;14.20;;
49392;SDS011;35268;42.642;23.308;2023-06-26T04:34:55;18.42;;;13.38;;
49392;SDS011;35268;42.642;23.308;2023-06-26T04:37:21;16.05;;;12.98;;
49392;SDS011;35268;42.642;23.308;2023-06-26T04:39:47;21.67;;;14.05;;
49392;SDS011;35268;42.642;23.308;2023-06-26T04:42:13;20.63;;;14.00;;
49392;SDS011;35268;42.642;23.308;2023-06-26T04:44:38;19.80;;;14.15;;
49392;SDS011;35268;42.642;23.308;2023-06-26T04:47:05;19.40;;;13.70;;
49392;SDS011;35268;42.642;23.308;2023-06-26T04:49:31;17.27;;;13.30;;
49392;SDS011;35268;42.642;23.308;2023-06-26T04:51:57;26.40;;;13.27;;
49392;SDS011;35268;42.642;23.308;2023-06-26T04:54:25;19.60;;;12.93;;
49392;SDS011;35268;42.642;23.308;2023-06-26T04:56:50;18.88;;;13.13;;
49392;SDS011;35268;42.642;23.308;2023-06-26T04:59:16;20.85;;;13.95;;
49392;SDS011;35268;42.642;23.308;2023-06-26T05:01:41;19.13;;;12.93;;
49392;SDS011;35268;42.642;23.308;2023-06-26T05:04:07;16.95;;;12.75;;
49392;SDS011;35268;42.642;23.308;2023-06-26T05:06:33;20.88;;;14.20;;
49392;SDS011;35268;42.642;23.308;2023-06-26T05:08:58;16.95;;;13.88;;
49392;SDS011;35268;42.642;23.308;2023-06-26T05:11:24;19.23;;;13.85;;
49392;SDS011;35268;42.642;23.308;2023-06-26T05:13:50;20.48;;;14.70;;
49392;SDS011;35268;42.642;23.308;2023-06-26T05:16:15;19.17;;;13.50;;
49392;SDS011;35268;42.642;23.308;2023-06-26T05:18:41;18.42;;;13.57;;
49392;SDS011;35268;42.642;23.308;2023-06-26T05:21:06;21.90;;;15.55;;
49392;SDS011;35268;42.642;23.308;2023-06-26T05:23:33;18.60;;;14.27;;
49392;SDS011;35268;42.642;23.308;2023-06-26T05:25:59;20.63;;;12.98;;
49392;SDS011;35268;42.642;23.308;2023-06-26T05:28:27;22.15;;;13.35;;
49392;SDS011;35268;42.642;23.308;2023-06-26T05:30:56;18.63;;;14.30;;
49392;SDS011;35268;42.642;23.308;2023-06-26T05:33:23;22.42;;;13.27;;
49392;SDS011;35268;42.642;23.308;2023-06-26T05:35:50;17.52;;;13.90;;
49392;SDS011;35268;42.642;23.308;2023-06-26T05:38:17;22.65;;;12.93;;
49392;SDS011;35268;42.642;23.308;2023-06-26T05:40:43;17.20;;;13.63;;
49392;SDS011;35268;42.642;23.308;2023-06-26T05:43:08;22.02;;;14.18;;
49392;SDS011;35268;42.642;23.308;2023-06-26T05:45:34;19.40;;;13.55;;
49392;SDS011;35268;42.642;23.308;2023-06-26T05:47:59;17.92;;;12.93;;
49392;SDS011;35268;42.642;23.308;2023-06-26T05:50:26;18.48;;;13.75;;
49392;SDS011;35268;42.642;23.308;2023-06-26T05:52:52;20.67;;;13.63;;
49392;SDS011;35268;42.642;23.308;2023-06-26T05:55:18;21.80;;;13.90;;
49392;SDS011;35268;42.642;23.308;2023-06-26T05:57:43;21.02;;;13.63;;
49392;SDS011;35268;42.642;23.308;2023-06-26T06:00:11;17.08;;;13.32;;
49392;SDS011;35268;42.642;23.308;2023-06-26T06:02:37;18.63;;;13.10;;
49392;SDS011;35268;42.642;23.308;2023-06-26T06:05:04;22.55;;;14.07;;
49392;SDS011;35268;42.642;23.308;2023-06-26T06:07:31;20.38;;;13.52;;
49392;SDS011;35268;42.642;23.308;2023-06-26T06:09:59;19.08;;;12.93;;
49392;SDS011;35268;42.642;23.308;2023-06-26T06:12:25;15.30;;;12.23;;
49392;SDS011;35268;42.642;23.308;2023-06-26T06:14:51;20.08;;;14.35;;
49392;SDS011;35268;42.642;23.308;2023-06-26T06:17:17;19.70;;;12.25;;
49392;SDS011;35268;42.642;23.308;2023-06-26T06:19:42;20.30;;;13.32;;
49392;SDS011;35268;42.642;23.308;2023-06-26T06:22:08;17.85;;;12.38;;
49392;SDS011;35268;42.642;23.308;2023-06-26T06:24:34;18.95;;;12.45;;
49392;SDS011;35268;42.642;23.308;2023-06-26T06:26:59;20.40;;;12.13;;
49392;SDS011;35268;42.642;23.308;2023-06-26T06:29:24;16.13;;;12.45;;
49392;SDS011;35268;42.642;23.308;2023-06-26T06:31:50;19.60;;;13.50;;
49392;SDS011;35268;42.642;23.308;2023-06-26T06:34:16;15.40;;;12.07;;
49392;SDS011;35268;42.642;23.308;2023-06-26T06:36:41;16.98;;;11.98;;
49392;SDS011;35268;42.642;23.308;2023-06-26T06:39:07;14.13;;;10.70;;
49392;SDS011;35268;42.642;23.308;2023-06-26T06:41:33;16.85;;;11.95;;
49392;SDS011;35268;42.642;23.308;2023-06-26T06:43:58;16.35;;;11.98;;
49392;SDS011;35268;42.642;23.308;2023-06-26T06:46:24;14.00;;;10.88;;
49392;SDS011;35268;42.642;23.308;2023-06-26T06:48:52;18.92;;;10.88;;
49392;SDS011;35268;42.642;23.308;2023-06-26T06:51:17;25.42;;;11.18;;
49392;SDS011;35268;42.642;23.308;2023-06-26T06:53:43;12.82;;;10.38;;
49392;SDS011;35268;42.642;23.308;2023-06-26T06:56:08;13.75;;;10.40;;
49392;SDS011;35268;42.642;23.308;2023-06-26T06:58:34;13.77;;;10.40;;
49392;SDS011;35268;42.642;23.308;2023-06-26T07:01:01;12.90;;;9.95;;
49392;SDS011;35268;42.642;23.308;2023-06-26T07:03:27;18.92;;;10.93;;
49392;SDS011;35268;42.642;23.308;2023-06-26T07:05:53;13.23;;;9.68;;
49392;SDS011;35268;42.642;23.308;2023-06-26T07:08:18;14.65;;;10.50;;
49392;SDS011;35268;42.642;23.308;2023-06-26T07:10:44;16.77;;;10.32;;
49392;SDS011;35268;42.642;23.308;2023-06-26T07:13:09;14.60;;;8.68;;
49392;SDS011;35268;42.642;23.308;2023-06-26T07:15:35;16.02;;;9.73;;
49392;SDS011;35268;42.642;23.308;2023-06-26T07:18:00;16.45;;;9.48;;
49392;SDS011;35268;42.642;23.308;2023-06-26T07:20:26;11.98;;;8.38;;
49392;SDS011;35268;42.642;23.308;2023-06-26T07:22:52;9.90;;;7.93;;
49392;SDS011;35268;42.642;23.308;2023-06-26T07:25:18;14.82;;;8.48;;
49392;SDS011;35268;42.642;23.308;2023-06-26T07:27:43;9.23;;;7.20;;
49392;SDS011;35268;42.642;23.308;2023-06-26T07:30:09;18.17;;;9.05;;
49392;SDS011;35268;42.642;23.308;2023-06-26T07:32:35;13.80;;;8.52;;
49392;SDS011;35268;42.642;23.308;2023-06-26T07:35:01;11.40;;;8.40;;
49392;SDS011;35268;42.642;23.308;2023-06-26T07:37:27;12.05;;;6.95;;
49392;SDS011;35268;42.642;23.308;2023-06-26T07:39:52;10.52;;;7.45;;
49392;SDS011;35268;42.642;23.308;2023-06-26T07:42:18;12.07;;;6.25;;
49392;SDS011;35268;42.642;23.308;2023-06-26T07:44:43;11.35;;;6.55;;
49392;SDS011;35268;42.642;23.308;2023-06-26T07:47:09;8.38;;;5.45;;
49392;SDS011;35268;42.642;23.308;2023-06-26T07:49:35;11.20;;;5.28;;
49392;SDS011;35268;42.642;23.308;2023-06-26T07:52:00;10.90;;;5.88;;
49392;SDS011;35268;42.642;23.308;2023-06-26T07:54:26;10.50;;;7.00;;
49392;SDS011;35268;42.642;23.308;2023-06-26T07:56:53;10.02;;;6.03;;
49392;SDS011;35268;42.642;23.308;2023-06-26T07:59:19;12.88;;;6.30;;
49392;SDS011;35268;42.642;23.308;2023-06-26T08:01:46;8.07;;;5.20;;
49392;SDS011;35268;42.642;23.308;2023-06-26T08:04:11;11.02;;;5.05;;
49392;SDS011;35268;42.642;23.308;2023-06-26T08:06:39;10.73;;;5.05;;
49392;SDS011;35268;42.642;23.308;2023-06-26T08:09:05;13.45;;;6.13;;
49392;SDS011;35268;42.642;23.308;2023-06-26T08:11:32;10.20;;;7.30;;
49392;SDS011;35268;42.642;23.308;2023-06-26T08:13:58;8.38;;;5.75;;
49392;SDS011;35268;42.642;23.308;2023-06-26T08:16:24;8.70;;;5.43;;
49392;SDS011;35268;42.642;23.308;2023-06-26T08:18:49;10.68;;;5.88;;
49392;SDS011;35268;42.642;23.308;2023-06-26T08:21:15;12.13;;;6.35;;
49392;SDS011;35268;42.642;23.308;2023-06-26T08:23:40;10.43;;;6.35;;
49392;SDS011;35268;42.642;23.308;2023-06-26T08:26:06;12.88;;;6.70;;
49392;SDS011;35268;42.642;23.308;2023-06-26T08:28:32;8.52;;;5.95;;
49392;SDS011;35268;42.642;23.308;2023-06-26T08:30:58;8.63;;;5.70;;
49392;SDS011;35268;42.642;23.308;2023-06-26T08:33:24;9.27;;;5.57;;
49392;SDS011;35268;42.642;23.308;2023-06-26T08:35:50;14.82;;;6.07;;
49392;SDS011;35268;42.642;23.308;2023-06-26T08:38:15;10.32;;;5.68;;
49392;SDS011;35268;42.642;23.308;2023-06-26T08:40:41;7.30;;;5.47;;
49392;SDS011;35268;42.642;23.308;2023-06-26T08:43:06;9.60;;;5.28;;
49392;SDS011;35268;42.642;23.308;2023-06-26T08:45:32;8.82;;;5.72;;
49392;SDS011;35268;42.642;23.308;2023-06-26T08:47:59;15.52;;;6.00;;
49392;SDS011;35268;42.642;23.308;2023-06-26T08:50:26;13.00;;;6.03;;
49392;SDS011;35268;42.642;23.308;2023-06-26T08:55:29;11.50;;;4.72;;
49392;SDS011;35268;42.642;23.308;2023-06-26T08:57:58;10.68;;;4.90;;
49392;SDS011;35268;42.642;23.308;2023-06-26T09:00:24;10.02;;;4.80;;
49392;SDS011;35268;42.642;23.308;2023-06-26T09:02:49;6.72;;;4.97;;
49392;SDS011;35268;42.642;23.308;2023-06-26T09:05:15;9.55;;;4.43;;
49392;SDS011;35268;42.642;23.308;2023-06-26T09:07:41;9.27;;;4.32;;
49392;SDS011;35268;42.642;23.308;2023-06-26T09:10:07;10.75;;;3.63;;
49392;SDS011;35268;42.642;23.308;2023-06-26T09:12:33;14.18;;;4.22;;
49392;SDS011;35268;42.642;23.308;2023-06-26T09:14:59;6.22;;;4.38;;
49392;SDS011;35268;42.642;23.308;2023-06-26T09:17:32;14.55;;;5.22;;
49392;SDS011;35268;42.642;23.308;2023-06-26T09:20:03;8.35;;;4.75;;
49392;SDS011;35268;42.642;23.308;2023-06-26T09:22:29;11.38;;;5.10;;
49392;SDS011;35268;42.642;23.308;2023-06-26T09:24:58;6.95;;;4.43;;
49392;SDS011;35268;42.642;23.308;2023-06-26T09:27:23;6.78;;;4.57;;
49392;SDS011;35268;42.642;23.308;2023-06-26T09:29:49;6.43;;;4.63;;
49392;SDS011;35268;42.642;23.308;2023-06-26T09:32:15;7.80;;;4.60;;
49392;SDS011;35268;42.642;23.308;2023-06-26T09:34:41;9.30;;;4.90;;
49392;SDS011;35268;42.642;23.308;2023-06-26T09:37:12;8.35;;;5.13;;
49392;SDS011;35268;42.642;23.308;2023-06-26T09:39:38;7.03;;;4.45;;
49392;SDS011;35268;42.642;23.308;2023-06-26T09:42:04;8.93;;;4.55;;
49392;SDS011;35268;42.642;23.308;2023-06-26T09:44:30;6.35;;;4.70;;
49392;SDS011;35268;42.642;23.308;2023-06-26T09:46:56;7.63;;;5.20;;
49392;SDS011;35268;42.642;23.308;2023-06-26T09:49:22;12.60;;;5.90;;
49392;SDS011;35268;42.642;23.308;2023-06-26T09:51:49;9.52;;;4.97;;
49392;SDS011;35268;42.642;23.308;2023-06-26T09:54:16;8.45;;;4.38;;
49392;SDS011;35268;42.642;23.308;2023-06-26T09:56:42;8.50;;;4.13;;
49392;SDS011;35268;42.642;23.308;2023-06-26T09:59:08;6.25;;;4.13;;
49392;SDS011;35268;42.642;23.308;2023-06-26T10:01:40;17.52;;;4.50;;
49392;SDS011;35268;42.642;23.308;2023-06-26T10:04:06;7.75;;;4.45;;
49392;SDS011;35268;42.642;23.308;2023-06-26T10:06:33;7.90;;;4.53;;
49392;SDS011;35268;42.642;23.308;2023-06-26T10:09:01;7.82;;;4.38;;
49392;SDS011;35268;42.642;23.308;2023-06-26T10:11:36;9.88;;;5.00;;
49392;SDS011;35268;42.642;23.308;2023-06-26T10:14:06;8.48;;;5.15;;
49392;SDS011;35268;42.642;23.308;2023-06-26T10:16:32;9.10;;;4.63;;
49392;SDS011;35268;42.642;23.308;2023-06-26T10:19:03;8.45;;;4.70;;
49392;SDS011;35268;42.642;23.308;2023-06-26T10:21:31;7.20;;;4.53;;
49392;SDS011;35268;42.642;23.308;2023-06-26T10:23:59;6.82;;;4.68;;
49392;SDS011;35268;42.642;23.308;2023-06-26T10:26:25;10.00;;;4.55;;
49392;SDS011;35268;42.642;23.308;2023-06-26T10:28:53;13.35;;;4.70;;
49392;SDS011;35268;42.642;23.308;2023-06-26T10:31:21;7.88;;;4.90;;
49392;SDS011;35268;42.642;23.308;2023-06-26T10:33:51;9.02;;;4.38;;
49392;SDS011;35268;42.642;23.308;2023-06-26T10:36:18;7.68;;;3.67;;
49392;SDS011;35268;42.642;23.308;2023-06-26T10:38:51;6.22;;;3.83;;
49392;SDS011;35268;42.642;23.308;2023-06-26T10:41:21;8.00;;;4.40;;
49392;SDS011;35268;42.642;23.308;2023-06-26T10:43:52;6.18;;;4.28;;
49392;SDS011;35268;42.642;23.308;2023-06-26T10:46:33;17.35;;;4.72;;
49392;SDS011;35268;42.642;23.308;2023-06-26T10:49:12;11.13;;;4.45;;
49392;SDS011;35268;42.642;23.308;2023-06-26T10:51:38;9.40;;;4.45;;
49392;SDS011;35268;42.642;23.308;2023-06-26T10:54:12;7.13;;;4.88;;
49392;SDS011;35268;42.642;23.308;2023-06-26T10:56:43;10.75;;;4.90;;
49392;SDS011;35268;42.642;23.308;2023-06-26T10:59:23;7.35;;;4.75;;
49392;SDS011;35268;42.642;23.308;2023-06-26T11:02:00;9.38;;;4.15;;
49392;SDS011;35268;42.642;23.308;2023-06-26T11:04:45;6.35;;;4.50;;
49392;SDS011;35268;42.642;23.308;2023-06-26T11:07:14;12.55;;;5.20;;
49392;SDS011;35268;42.642;23.308;2023-06-26T11:09:54;6.13;;;3.60;;
49392;SDS011;35268;42.642;23.308;2023-06-26T11:15:12;10.75;;;4.60;;
49392;SDS011;35268;42.642;23.308;2023-06-26T11:17:38;8.38;;;5.40;;
49392;SDS011;35268;42.642;23.308;2023-06-26T11:20:10;16.40;;;5.95;;
49392;SDS011;35268;42.642;23.308;2023-06-26T11:22:37;7.40;;;5.07;;
49392;SDS011;35268;42.642;23.308;2023-06-26T11:25:04;10.77;;;4.78;;
49392;SDS011;35268;42.642;23.308;2023-06-26T11:30:02;7.25;;;4.60;;
49392;SDS011;35268;42.642;23.308;2023-06-26T11:32:27;6.68;;;4.50;;
49392;SDS011;35268;42.642;23.308;2023-06-26T11:34:54;8.13;;;4.68;;
49392;SDS011;35268;42.642;23.308;2023-06-26T11:37:20;9.40;;;4.32;;
49392;SDS011;35268;42.642;23.308;2023-06-26T11:39:46;9.05;;;4.97;;
49392;SDS011;35268;42.642;23.308;2023-06-26T11:42:12;9.50;;;4.70;;
49392;SDS011;35268;42.642;23.308;2023-06-26T11:44:41;6.03;;;4.35;;
49392;SDS011;35268;42.642;23.308;2023-06-26T11:47:17;11.10;;;5.00;;
49392;SDS011;35268;42.642;23.308;2023-06-26T11:49:47;7.63;;;4.45;;
49392;SDS011;35268;42.642;23.308;2023-06-26T11:52:13;9.45;;;5.22;;
49392;SDS011;35268;42.642;23.308;2023-06-26T11:54:41;7.07;;;4.57;;
49392;SDS011;35268;42.642;23.308;2023-06-26T11:57:07;8.82;;;4.75;;
49392;SDS011;35268;42.642;23.308;2023-06-26T11:59:37;8.43;;;4.45;;
49392;SDS011;35268;42.642;23.308;2023-06-26T12:02:05;11.10;;;5.13;;
49392;SDS011;35268;42.642;23.308;2023-06-26T12:04:32;8.48;;;5.03;;
49392;SDS011;35268;42.642;23.308;2023-06-26T12:06:59;9.13;;;5.47;;
49392;SDS011;35268;42.642;23.308;2023-06-26T12:09:25;7.07;;;4.70;;
49392;SDS011;35268;42.642;23.308;2023-06-26T12:11:52;6.97;;;4.60;;
49392;SDS011;35268;42.642;23.308;2023-06-26T12:14:19;8.07;;;5.03;;
49392;SDS011;35268;42.642;23.308;2023-06-26T12:16:45;8.65;;;4.70;;
49392;SDS011;35268;42.642;23.308;2023-06-26T12:19:12;9.40;;;5.25;;
49392;SDS011;35268;42.642;23.308;2023-06-26T12:24:06;10.32;;;4.68;;
49392;SDS011;35268;42.642;23.308;2023-06-26T12:26:34;6.93;;;4.45;;
49392;SDS011;35268;42.642;23.308;2023-06-26T12:29:07;8.48;;;4.93;;
49392;SDS011;35268;42.642;23.308;2023-06-26T12:31:44;14.35;;;4.63;;
49392;SDS011;35268;42.642;23.308;2023-06-26T12:34:11;6.43;;;4.25;;
49392;SDS011;35268;42.642;23.308;2023-06-26T12:36:42;6.90;;;4.60;;
49392;SDS011;35268;42.642;23.308;2023-06-26T12:39:15;8.35;;;4.70;;
49392;SDS011;35268;42.642;23.308;2023-06-26T12:41:45;7.22;;;4.35;;
49392;SDS011;35268;42.642;23.308;2023-06-26T12:44:48;12.05;;;4.80;;
49392;SDS011;35268;42.642;23.308;2023-06-26T12:47:06;10.40;;;4.85;;
49392;SDS011;35268;42.642;23.308;2023-06-26T12:49:33;11.57;;;5.05;;
49392;SDS011;35268;42.642;23.308;2023-06-26T12:51:59;11.40;;;4.68;;
49392;SDS011;35268;42.642;23.308;2023-06-26T12:54:26;7.30;;;4.72;;
49392;SDS011;35268;42.642;23.308;2023-06-26T12:56:52;7.45;;;4.95;;
49392;SDS011;35268;42.642;23.308;2023-06-26T12:59:17;7.10;;;4.57;;
49392;SDS011;35268;42.642;23.308;2023-06-26T13:01:43;13.25;;;5.47;;
49392;SDS011;35268;42.642;23.308;2023-06-26T13:04:08;11.73;;;5.15;;
49392;SDS011;35268;42.642;23.308;2023-06-26T13:06:35;6.43;;;4.47;;
49392;SDS011;35268;42.642;23.308;2023-06-26T13:09:01;9.40;;;4.85;;
49392;SDS011;35268;42.642;23.308;2023-06-26T13:11:30;10.25;;;4.78;;
49392;SDS011;35268;42.642;23.308;2023-06-26T13:13:56;10.57;;;5.00;;
49392;SDS011;35268;42.642;23.308;2023-06-26T13:16:22;12.23;;;5.53;;
49392;SDS011;35268;42.642;23.308;2023-06-26T13:18:47;10.43;;;5.05;;
49392;SDS011;35268;42.642;23.308;2023-06-26T13:21:13;9.10;;;5.47;;
49392;SDS011;35268;42.642;23.308;2023-06-26T13:23:39;10.30;;;5.30;;
49392;SDS011;35268;42.642;23.308;2023-06-26T13:26:05;13.45;;;5.35;;
49392;SDS011;35268;42.642;23.308;2023-06-26T13:28:30;8.50;;;5.70;;
49392;SDS011;35268;42.642;23.308;2023-06-26T13:30:59;12.55;;;5.13;;
49392;SDS011;35268;42.642;23.308;2023-06-26T13:33:24;6.97;;;4.40;;
49392;SDS011;35268;42.642;23.308;2023-06-26T13:35:51;6.72;;;4.57;;
49392;SDS011;35268;42.642;23.308;2023-06-26T13:38:23;8.15;;;4.93;;
49392;SDS011;35268;42.642;23.308;2023-06-26T13:40:55;12.30;;;4.95;;
49392;SDS011;35268;42.642;23.308;2023-06-26T13:43:27;13.52;;;4.63;;
49392;SDS011;35268;42.642;23.308;2023-06-26T13:45:54;6.43;;;4.20;;
49392;SDS011;35268;42.642;23.308;2023-06-26T13:48:19;8.88;;;4.60;;
49392;SDS011;35268;42.642;23.308;2023-06-26T13:50:45;10.60;;;4.40;;
49392;SDS011;35268;42.642;23.308;2023-06-26T13:53:13;6.07;;;4.22;;
49392;SDS011;35268;42.642;23.308;2023-06-26T13:55:39;8.60;;;4.70;;
49392;SDS011;35268;42.642;23.308;2023-06-26T13:58:05;5.85;;;4.82;;
49392;SDS011;35268;42.642;23.308;2023-06-26T14:00:32;8.65;;;4.63;;
49392;SDS011;35268;42.642;23.308;2023-06-26T14:02:59;8.05;;;4.65;;
49392;SDS011;35268;42.642;23.308;2023-06-26T14:05:25;11.80;;;5.00;;
49392;SDS011;35268;42.642;23.308;2023-06-26T14:07:50;10.10;;;5.03;;
49392;SDS011;35268;42.642;23.308;2023-06-26T14:10:16;8.38;;;5.13;;
49392;SDS011;35268;42.642;23.308;2023-06-26T14:12:43;7.65;;;5.13;;
49392;SDS011;35268;42.642;23.308;2023-06-26T14:15:09;8.48;;;5.90;;
49392;SDS011;35268;42.642;23.308;2023-06-26T14:17:35;12.50;;;6.07;;
49392;SDS011;35268;42.642;23.308;2023-06-26T14:20:00;6.45;;;4.10;;
49392;SDS011;35268;42.642;23.308;2023-06-26T14:22:26;7.78;;;4.63;;
49392;SDS011;35268;42.642;23.308;2023-06-26T14:24:51;10.65;;;5.28;;
49392;SDS011;35268;42.642;23.308;2023-06-26T14:27:17;8.35;;;4.63;;
49392;SDS011;35268;42.642;23.308;2023-06-26T14:29:42;8.52;;;4.03;;
49392;SDS011;35268;42.642;23.308;2023-06-26T14:32:08;5.85;;;4.22;;